createdAt,value
2018-11-03T00:01:10.291Z,4.55
2018-11-03T00:03:44.255Z,4.55
2018-11-03T00:06:16.665Z,4.54
2018-11-03T00:08:50.286Z,4.55
2018-11-03T00:11:33.427Z,4.55
2018-11-03T00:14:07.454Z,4.51
2018-11-03T00:16:40.646Z,4.52
2018-11-03T00:19:14.544Z,4.52
2018-11-03T00:21:48.036Z,4.51
2018-11-03T00:24:26.190Z,4.47
2018-11-03T00:27:01.073Z,4.44
2018-11-03T00:29:34.980Z,4.42
2018-11-03T00:32:09.237Z,4.43
2018-11-03T00:34:41.850Z,4.44
2018-11-03T00:37:17.752Z,4.45
2018-11-03T00:39:52.849Z,4.46
2018-11-03T00:42:27.902Z,4.48
2018-11-03T00:45:02.895Z,4.50
2018-11-03T00:47:38.167Z,4.48
2018-11-03T00:50:14.112Z,4.52
2018-11-03T00:52:49.717Z,4.52
2018-11-03T00:55:24.346Z,4.53
2018-11-03T00:58:01.423Z,4.51
2018-11-03T01:00:36.821Z,4.48
2018-11-03T01:03:14.533Z,4.48
2018-11-03T01:05:53.964Z,4.46
2018-11-03T01:08:31.872Z,4.43
2018-11-03T01:11:10.697Z,4.42
2018-11-03T01:16:28.001Z,4.37
2018-11-03T01:19:05.008Z,4.36
2018-11-03T01:21:39.795Z,4.31
2018-11-03T01:24:13.982Z,4.27
2018-11-03T01:26:51.226Z,4.24
2018-11-03T01:29:27.435Z,4.21
2018-11-03T01:32:03.941Z,4.18
2018-11-03T01:34:40.176Z,4.17
2018-11-03T01:37:16.555Z,4.13
2018-11-03T01:39:53.256Z,4.11
2018-11-03T01:42:27.405Z,4.11
2018-11-03T01:45:03.207Z,4.12
2018-11-03T01:47:38.756Z,4.10
2018-11-03T01:50:10.912Z,4.08
2018-11-03T01:52:41.316Z,4.03
2018-11-03T01:55:11.040Z,3.99
2018-11-03T01:57:40.711Z,3.97
2018-11-03T02:00:11.248Z,3.96
2018-11-03T02:02:40.834Z,3.91
2018-11-03T02:05:10.883Z,3.86
2018-11-03T02:07:40.542Z,3.82
2018-11-03T02:10:11.570Z,3.78
2018-11-03T02:12:41.408Z,3.76
2018-11-03T02:15:11.231Z,3.72
2018-11-03T02:17:40.749Z,3.72
2018-11-03T02:20:41.342Z,3.71
2018-11-03T02:23:15.738Z,3.71
2018-11-03T02:25:45.229Z,3.75
2018-11-03T02:28:14.843Z,3.78
2018-11-03T02:30:44.335Z,3.79
2018-11-03T02:35:55.063Z,3.82
2018-11-03T02:38:24.537Z,3.80
2018-11-03T02:40:54.551Z,3.76
2018-11-03T02:43:24.217Z,3.71
2018-11-03T02:45:53.826Z,3.66
2018-11-03T02:48:23.389Z,3.62
2018-11-03T02:50:53.106Z,3.59
2018-11-03T02:53:22.714Z,3.53
2018-11-03T02:55:52.291Z,3.48
2018-11-03T02:58:21.845Z,3.44
2018-11-03T03:00:51.902Z,3.41
2018-11-03T03:03:21.447Z,3.38
2018-11-03T03:05:50.925Z,3.33
2018-11-03T03:08:20.654Z,3.31
2018-11-03T03:10:50.130Z,3.30
2018-11-03T03:13:19.737Z,3.28
2018-11-03T03:15:49.930Z,3.28
2018-11-03T03:18:19.469Z,3.20
2018-11-03T03:20:48.992Z,3.21
2018-11-03T03:23:18.563Z,3.21
2018-11-03T03:25:48.265Z,3.19
2018-11-03T03:28:17.859Z,3.19
2018-11-03T03:30:47.330Z,2.87
2018-11-03T03:33:16.924Z,3.13
2018-11-03T03:35:46.412Z,3.11
2018-11-03T03:38:15.973Z,3.10
2018-11-03T03:40:45.579Z,3.10
2018-11-03T03:43:15.221Z,3.11
2018-11-03T03:45:47.882Z,3.09
2018-11-03T03:48:17.406Z,3.06
2018-11-03T03:50:51.038Z,3.04
2018-11-03T03:53:20.675Z,3.07
2018-11-03T03:55:50.162Z,3.07
2018-11-03T03:58:19.715Z,3.07
2018-11-03T04:00:49.263Z,3.06
2018-11-03T04:03:18.831Z,3.04
2018-11-03T04:05:48.247Z,3.04
2018-11-03T04:08:20.635Z,3.04
2018-11-03T04:10:50.243Z,3.06
2018-11-03T04:13:19.848Z,3.07
2018-11-03T04:15:49.414Z,3.07
2018-11-03T04:18:18.966Z,3.10
2018-11-03T04:20:48.583Z,3.11
2018-11-03T04:23:18.084Z,3.09
2018-11-03T04:25:52.035Z,3.04
2018-11-03T04:28:21.730Z,3.01
2018-11-03T04:30:51.344Z,3.01
2018-11-03T04:33:20.879Z,3.01
2018-11-03T04:35:50.433Z,2.99
2018-11-03T04:38:19.990Z,2.96
2018-11-03T04:40:49.538Z,2.96
2018-11-03T04:43:21.519Z,2.90
2018-11-03T04:45:51.023Z,2.92
2018-11-03T04:48:20.709Z,2.89
2018-11-03T04:50:50.267Z,2.86
2018-11-03T04:53:19.807Z,2.85
2018-11-03T04:55:49.349Z,2.84
2018-11-03T04:58:18.990Z,2.85
2018-11-03T05:00:49.049Z,2.86
2018-11-03T05:03:18.439Z,2.87
2018-11-03T05:05:47.838Z,2.86
2018-11-03T05:08:17.235Z,2.88
2018-11-03T05:10:46.695Z,2.85
2018-11-03T05:13:16.155Z,2.82
2018-11-03T05:15:45.595Z,2.78
2018-11-03T05:18:15.265Z,2.75
2018-11-03T05:20:44.675Z,2.70
2018-11-03T05:23:14.078Z,2.68
2018-11-03T05:25:43.514Z,2.66
2018-11-03T05:28:12.884Z,2.64
2018-11-03T05:30:42.294Z,2.63
2018-11-03T05:33:11.692Z,2.60
2018-11-03T05:35:41.055Z,2.65
2018-11-03T05:38:10.468Z,2.61
2018-11-03T05:40:39.921Z,2.61
2018-11-03T05:43:09.342Z,2.60
2018-11-03T05:45:38.815Z,2.56
2018-11-03T05:48:08.196Z,2.53
2018-11-03T05:50:37.548Z,2.52
2018-11-03T05:53:07.013Z,2.49
2018-11-03T05:55:36.386Z,2.47
2018-11-03T05:58:07.134Z,2.46
2018-11-03T06:00:36.795Z,2.45
2018-11-03T06:03:06.918Z,2.42
2018-11-03T06:05:36.576Z,2.41
2018-11-03T06:08:06.488Z,2.40
2018-11-03T06:10:36.163Z,2.39
2018-11-03T06:13:06.383Z,2.39
2018-11-03T06:15:35.939Z,2.40
2018-11-03T06:18:07.030Z,2.41
2018-11-03T06:20:36.615Z,2.42
2018-11-03T06:23:06.575Z,2.41
2018-11-03T06:25:36.203Z,2.41
2018-11-03T06:28:06.367Z,2.42
2018-11-03T06:30:35.887Z,2.42
2018-11-03T06:33:06.507Z,2.41
2018-11-03T06:35:36.016Z,2.37
2018-11-03T06:38:06.827Z,2.40
2018-11-03T06:40:36.542Z,2.40
2018-11-03T06:43:07.019Z,2.41
2018-11-03T06:45:36.673Z,2.44
2018-11-03T06:48:07.269Z,2.47
2018-11-03T06:50:37.018Z,2.49
2018-11-03T06:53:06.797Z,2.52
2018-11-03T06:55:36.555Z,2.54
2018-11-03T06:58:06.478Z,2.56
2018-11-03T07:00:36.087Z,2.56
2018-11-03T07:03:06.906Z,2.57
2018-11-03T07:05:36.473Z,2.62
2018-11-03T07:08:07.103Z,2.63
2018-11-03T07:10:36.669Z,2.64
2018-11-03T07:13:06.341Z,2.61
2018-11-03T07:15:35.924Z,2.67
2018-11-03T07:18:06.858Z,2.70
2018-11-03T07:20:36.468Z,2.74
2018-11-03T07:23:06.743Z,2.78
2018-11-03T07:25:36.334Z,2.81
2018-11-03T07:28:06.891Z,2.82
2018-11-03T07:30:36.434Z,2.85
2018-11-03T07:33:07.011Z,2.96
2018-11-03T07:35:36.630Z,3.01
2018-11-03T07:38:06.748Z,3.09
2018-11-03T07:40:36.556Z,3.13
2018-11-03T07:43:06.311Z,3.17
2018-11-03T07:45:35.979Z,3.21
2018-11-03T07:48:06.621Z,3.25
2018-11-03T07:50:36.156Z,3.28
2018-11-03T07:53:06.624Z,3.29
2018-11-03T07:55:36.295Z,3.34
2018-11-03T07:58:06.852Z,3.37
2018-11-03T08:00:36.440Z,3.41
2018-11-03T08:03:06.035Z,3.43
2018-11-03T08:05:35.490Z,3.45
2018-11-03T08:08:06.798Z,3.48
2018-11-03T08:10:36.210Z,3.52
2018-11-03T08:13:06.929Z,3.58
2018-11-03T08:15:36.461Z,3.64
2018-11-03T08:18:06.752Z,3.69
2018-11-03T08:20:36.184Z,3.70
2018-11-03T08:23:06.505Z,3.76
2018-11-03T08:25:44.842Z,3.80
2018-11-03T08:28:14.238Z,3.84
2018-11-03T08:30:43.786Z,3.89
2018-11-03T08:33:13.218Z,3.93
2018-11-03T08:35:42.635Z,3.97
2018-11-03T08:38:12.061Z,4.01
2018-11-03T08:40:41.557Z,4.08
2018-11-03T08:43:11.019Z,4.14
2018-11-03T08:45:40.531Z,4.18
2018-11-03T08:48:10.024Z,4.26
2018-11-03T08:50:39.956Z,4.34
2018-11-03T08:53:09.385Z,4.42
2018-11-03T08:55:39.209Z,4.49
2018-11-03T08:58:08.695Z,4.57
2018-11-03T09:00:38.332Z,4.65
2018-11-03T09:03:09.049Z,4.72
2018-11-03T09:05:42.367Z,4.81
2018-11-03T09:08:11.870Z,4.91
2018-11-03T09:10:41.322Z,5.01
2018-11-03T09:13:10.737Z,5.08
2018-11-03T09:15:40.897Z,5.16
2018-11-03T09:18:10.374Z,5.25
2018-11-03T09:20:40.000Z,5.32
2018-11-03T09:23:09.423Z,5.40
2018-11-03T09:25:38.830Z,5.46
2018-11-03T09:28:08.288Z,5.54
2018-11-03T09:30:37.760Z,5.60
2018-11-03T09:33:07.202Z,5.66
2018-11-03T09:35:36.712Z,5.74
2018-11-03T09:38:06.623Z,5.80
2018-11-03T09:40:36.027Z,5.87
2018-11-03T09:43:07.216Z,5.94
2018-11-03T09:45:36.650Z,6.01
2018-11-03T09:48:06.743Z,6.11
2018-11-03T09:50:36.192Z,6.19
2018-11-03T09:53:07.300Z,6.25
2018-11-03T09:55:36.731Z,6.33
2018-11-03T09:58:06.440Z,6.43
2018-11-03T10:00:35.877Z,6.53
2018-11-03T10:03:06.442Z,6.63
2018-11-03T10:05:35.782Z,6.74
2018-11-03T10:08:09.452Z,6.82
2018-11-03T10:10:39.757Z,6.89
2018-11-03T10:13:09.105Z,6.96
2018-11-03T10:15:38.576Z,7.05
2018-11-03T10:18:07.968Z,7.12
2018-11-03T10:20:37.413Z,7.20
2018-11-03T10:23:06.989Z,7.24
2018-11-03T10:25:36.243Z,7.30
2018-11-03T10:28:06.639Z,7.35
2018-11-03T10:30:36.076Z,7.40
2018-11-03T10:33:06.195Z,7.47
2018-11-03T10:35:35.985Z,7.53
2018-11-03T10:38:06.074Z,7.60
2018-11-03T10:40:35.485Z,7.65
2018-11-03T10:43:06.439Z,7.74
2018-11-03T10:45:35.856Z,7.78
2018-11-03T10:48:06.750Z,7.83
2018-11-03T10:50:36.180Z,7.91
2018-11-03T10:53:07.002Z,7.98
2018-11-03T10:55:36.429Z,8.07
2018-11-03T10:58:06.200Z,8.10
2018-11-03T11:00:40.740Z,8.14
2018-11-03T11:03:15.242Z,8.21
2018-11-03T11:05:49.954Z,8.24
2018-11-03T11:08:24.473Z,8.29
2018-11-03T11:10:59.213Z,8.38
2018-11-03T11:13:30.357Z,8.47
2018-11-03T11:15:59.884Z,8.56
2018-11-03T11:18:29.279Z,8.64
2018-11-03T11:20:58.763Z,8.69
2018-11-03T11:23:28.164Z,8.73
2018-11-03T11:25:57.564Z,8.79
2018-11-03T11:28:27.781Z,8.85
2018-11-03T11:30:57.208Z,8.90
2018-11-03T11:33:26.730Z,8.96
2018-11-03T11:36:11.179Z,9.03
2018-11-03T11:38:40.652Z,9.08
2018-11-03T11:41:10.027Z,9.16
2018-11-03T11:43:39.419Z,9.23
2018-11-03T11:46:08.841Z,9.31
2018-11-03T11:48:38.830Z,9.37
2018-11-03T11:51:08.212Z,9.45
2018-11-03T11:53:37.635Z,9.53
2018-11-03T11:56:07.249Z,9.62
2018-11-03T11:58:38.593Z,9.71
2018-11-03T12:01:08.041Z,9.80
2018-11-03T12:03:37.538Z,9.93
2018-11-03T12:06:07.199Z,10.07
2018-11-03T12:08:36.688Z,10.19
2018-11-03T12:14:21.165Z,10.53
2018-11-03T12:16:51.092Z,10.68
2018-11-03T12:19:20.451Z,10.77
2018-11-03T12:21:51.771Z,10.86
2018-11-03T12:24:21.126Z,10.95
2018-11-03T12:26:50.637Z,11.02
2018-11-03T12:29:21.061Z,11.06
2018-11-03T12:31:51.345Z,11.11
2018-11-03T12:34:20.773Z,11.14
2018-11-03T12:36:50.169Z,11.18
2018-11-03T12:39:19.515Z,11.23
2018-11-03T12:41:48.974Z,11.30
2018-11-03T12:44:18.329Z,11.60
2018-11-03T12:46:47.754Z,12.19
2018-11-03T12:49:17.118Z,12.79
2018-11-03T12:51:46.594Z,13.37
2018-11-03T12:54:15.991Z,13.81
2018-11-03T12:56:45.806Z,14.13
2018-11-03T12:59:15.308Z,14.48
2018-11-03T13:01:44.636Z,14.85
2018-11-03T13:04:13.984Z,15.16
2018-11-03T13:06:43.411Z,15.44
2018-11-03T13:09:12.772Z,15.72
2018-11-03T13:11:42.196Z,15.39
2018-11-03T13:14:11.582Z,14.72
2018-11-03T13:16:40.949Z,14.13
2018-11-03T13:19:10.372Z,13.59
2018-11-03T13:21:39.927Z,13.18
2018-11-03T13:24:09.330Z,12.88
2018-11-03T13:26:38.686Z,12.66
2018-11-03T13:29:08.327Z,12.47
2018-11-03T13:31:37.688Z,12.27
2018-11-03T13:34:07.420Z,12.12
2018-11-03T13:36:36.874Z,12.01
2018-11-03T13:39:08.366Z,11.93
2018-11-03T13:41:37.825Z,11.83
2018-11-03T13:44:07.257Z,11.74
2018-11-03T13:46:36.868Z,11.66
2018-11-03T13:49:06.317Z,11.56
2018-11-03T13:51:35.772Z,11.50
2018-11-03T13:54:07.661Z,11.44
2018-11-03T13:56:37.204Z,11.39
2018-11-03T13:59:06.726Z,11.35
2018-11-03T14:01:36.824Z,11.32
2018-11-03T14:04:06.249Z,11.27
2018-11-03T14:07:08.326Z,11.25
2018-11-03T14:09:38.027Z,11.18
2018-11-03T14:12:07.542Z,11.15
2018-11-03T14:14:36.958Z,11.12
2018-11-03T14:17:06.593Z,11.07
2018-11-03T14:19:36.101Z,11.05
2018-11-03T14:22:06.597Z,11.02
2018-11-03T14:24:36.036Z,11.00
2018-11-03T14:27:06.291Z,10.98
2018-11-03T14:29:35.646Z,10.96
2018-11-03T14:32:05.299Z,10.94
2018-11-03T14:34:34.686Z,10.92
2018-11-03T14:37:04.231Z,10.88
2018-11-03T14:39:33.627Z,10.86
2018-11-03T14:42:03.124Z,10.82
2018-11-03T14:44:32.620Z,10.80
2018-11-03T14:47:02.187Z,10.74
2018-11-03T14:49:31.554Z,10.69
2018-11-03T14:52:01.066Z,10.64
2018-11-03T14:54:30.392Z,10.57
2018-11-03T14:56:59.827Z,10.51
2018-11-03T14:59:29.206Z,10.48
2018-11-03T15:01:58.583Z,10.42
2018-11-03T15:04:27.985Z,10.38
2018-11-03T15:06:57.363Z,10.34
2018-11-03T15:09:26.855Z,10.29
2018-11-03T15:11:56.251Z,10.43
2018-11-03T15:14:25.741Z,10.33
2018-11-03T15:16:55.105Z,10.22
2018-11-03T15:19:25.539Z,10.13
2018-11-03T15:21:54.919Z,10.05
2018-11-03T15:24:24.319Z,9.96
2018-11-03T15:26:53.661Z,9.86
2018-11-03T15:29:23.099Z,9.77
2018-11-03T15:31:54.454Z,9.68
2018-11-03T15:34:24.005Z,9.57
2018-11-03T15:36:53.413Z,9.51
2018-11-03T15:39:22.828Z,9.41
2018-11-03T15:41:52.287Z,9.32
2018-11-03T15:44:21.717Z,9.22
2018-11-03T15:46:51.032Z,9.12
2018-11-03T15:49:20.379Z,9.02
2018-11-03T15:51:49.777Z,8.90
2018-11-03T15:54:19.186Z,8.80
2018-11-03T15:59:40.016Z,8.62
2018-11-03T16:02:12.597Z,8.51
2018-11-03T16:04:44.424Z,8.39
2018-11-03T16:07:16.468Z,8.27
2018-11-03T16:09:48.375Z,8.18
2018-11-03T16:12:20.637Z,8.11
2018-11-03T16:14:52.413Z,8.02
2018-11-03T16:17:27.629Z,7.91
2018-11-03T16:19:59.668Z,7.89
2018-11-03T16:22:32.467Z,7.82
2018-11-03T16:25:04.968Z,7.77
2018-11-03T16:27:38.009Z,7.70
2018-11-03T16:30:13.286Z,7.61
2018-11-03T16:32:45.483Z,7.56
2018-11-03T16:35:19.423Z,7.25
2018-11-03T16:37:51.456Z,7.47
2018-11-03T16:40:21.040Z,7.41
2018-11-03T16:42:50.624Z,7.34
2018-11-03T16:45:20.195Z,7.27
2018-11-03T16:47:49.754Z,7.18
2018-11-03T16:50:19.323Z,7.22
2018-11-03T16:52:48.918Z,7.20
2018-11-03T16:55:18.727Z,7.14
2018-11-03T16:57:48.495Z,7.09
2018-11-03T17:00:18.130Z,7.03
2018-11-03T17:02:47.802Z,6.98
2018-11-03T17:05:17.601Z,6.91
2018-11-03T17:07:47.327Z,6.86
2018-11-03T17:10:18.914Z,6.83
2018-11-03T17:12:48.737Z,6.80
2018-11-03T17:15:18.441Z,6.78
2018-11-03T17:17:48.237Z,6.76
2018-11-03T17:20:17.839Z,6.76
2018-11-03T17:22:47.523Z,6.76
2018-11-03T17:25:17.273Z,6.76
2018-11-03T17:27:46.753Z,6.76
2018-11-03T17:30:16.566Z,6.77
2018-11-03T17:32:46.066Z,6.76
2018-11-03T17:35:15.418Z,6.74
2018-11-03T17:37:45.075Z,6.75
2018-11-03T17:40:14.435Z,6.74
2018-11-03T17:42:43.832Z,6.73
2018-11-03T17:45:13.475Z,6.73
2018-11-03T17:47:42.835Z,6.72
2018-11-03T17:50:13.560Z,6.73
2018-11-03T17:52:43.385Z,6.73
2018-11-03T17:55:12.783Z,6.73
2018-11-03T17:57:42.232Z,6.71
2018-11-03T18:00:15.240Z,6.70
2018-11-03T18:02:46.146Z,6.70
2018-11-03T18:05:16.404Z,6.71
2018-11-03T18:07:45.802Z,6.68
2018-11-03T18:10:15.226Z,6.66
2018-11-03T18:12:44.945Z,6.65
2018-11-03T18:15:14.319Z,6.63
2018-11-03T18:17:43.794Z,6.62
2018-11-03T18:20:13.729Z,6.58
2018-11-03T18:22:43.084Z,6.54
2018-11-03T18:25:12.509Z,6.50
2018-11-03T18:27:42.948Z,6.47
2018-11-03T18:30:13.411Z,6.43
2018-11-03T18:32:43.100Z,6.41
2018-11-03T18:35:12.771Z,6.38
2018-11-03T18:37:42.184Z,6.36
2018-11-03T18:40:11.678Z,6.33
2018-11-03T18:42:41.047Z,6.28
2018-11-03T18:45:13.123Z,6.26
2018-11-03T18:47:42.679Z,6.22
2018-11-03T18:50:14.053Z,6.20
2018-11-03T18:52:43.511Z,6.18
2018-11-03T18:55:13.207Z,6.16
2018-11-03T18:57:42.760Z,6.14
2018-11-03T19:00:12.610Z,6.11
2018-11-03T19:02:42.305Z,6.08
2018-11-03T19:05:11.826Z,6.04
2018-11-03T19:07:41.425Z,6.01
2018-11-03T19:10:11.420Z,6.00
2018-11-03T19:12:40.857Z,5.97
2018-11-03T19:15:10.888Z,5.92
2018-11-03T19:17:40.714Z,5.91
2018-11-03T19:20:13.259Z,5.87
2018-11-03T19:22:42.803Z,5.84
2018-11-03T19:25:13.427Z,5.82
2018-11-03T19:27:42.939Z,5.79
2018-11-03T19:30:13.451Z,5.76
2018-11-03T19:32:43.966Z,5.72
2018-11-03T19:35:13.348Z,5.69
2018-11-03T19:37:42.944Z,5.67
2018-11-03T19:40:13.322Z,5.67
2018-11-03T19:42:43.013Z,5.63
2018-11-03T19:45:12.804Z,5.64
2018-11-03T19:47:42.162Z,5.62
2018-11-03T19:50:11.774Z,5.62
2018-11-03T19:52:41.147Z,5.60
2018-11-03T19:55:10.539Z,5.57
2018-11-03T19:57:40.009Z,5.54
2018-11-03T20:00:18.014Z,5.50
2018-11-03T20:02:47.560Z,5.46
2018-11-03T20:05:16.867Z,5.41
2018-11-03T20:07:46.392Z,5.39
2018-11-03T20:10:15.895Z,5.36
2018-11-03T20:12:45.194Z,5.32
2018-11-03T20:15:14.761Z,5.30
2018-11-03T20:17:44.246Z,5.27
2018-11-03T20:20:14.314Z,5.25
2018-11-03T20:22:43.755Z,5.21
2018-11-03T20:25:13.671Z,5.19
2018-11-03T20:27:43.063Z,5.16
2018-11-03T20:30:14.080Z,5.12
2018-11-03T20:32:43.994Z,5.08
2018-11-03T20:35:13.390Z,5.03
2018-11-03T20:37:42.707Z,4.98
2018-11-03T20:40:13.330Z,4.95
2018-11-03T20:42:42.815Z,4.91
2018-11-03T20:45:12.543Z,4.87
2018-11-03T20:47:42.041Z,4.83
2018-11-03T20:50:14.012Z,4.83
2018-11-03T20:52:43.374Z,4.79
2018-11-03T20:55:24.942Z,4.74
2018-11-03T20:57:54.417Z,4.66
2018-11-03T21:00:24.356Z,4.60
2018-11-03T21:02:54.051Z,4.57
2018-11-03T21:05:23.751Z,4.53
2018-11-03T21:07:53.445Z,4.53
2018-11-03T21:10:23.387Z,4.50
2018-11-03T21:12:53.088Z,4.47
2018-11-03T21:15:23.698Z,4.41
2018-11-03T21:17:53.226Z,4.38
2018-11-03T21:20:22.736Z,4.36
2018-11-03T21:22:52.586Z,4.36
2018-11-03T21:25:22.154Z,4.34
2018-11-03T21:27:51.928Z,4.32
2018-11-03T21:30:21.549Z,4.30
2018-11-03T21:32:53.295Z,4.30
2018-11-03T21:35:22.914Z,4.28
2018-11-03T21:37:52.518Z,4.26
2018-11-03T21:40:22.157Z,4.26
2018-11-03T21:42:51.855Z,4.25
2018-11-03T21:45:21.542Z,4.22
2018-11-03T21:47:51.079Z,4.20
2018-11-03T21:50:20.678Z,4.14
2018-11-03T21:52:50.218Z,4.08
2018-11-03T21:55:19.786Z,4.05
2018-11-03T21:57:49.332Z,3.97
2018-11-03T22:00:18.891Z,3.93
2018-11-03T22:02:56.746Z,3.89
2018-11-03T22:05:26.377Z,3.84
2018-11-03T22:07:56.024Z,3.82
2018-11-03T22:10:25.733Z,3.80
2018-11-03T22:12:55.371Z,3.76
2018-11-03T22:15:24.725Z,3.72
2018-11-03T22:17:54.191Z,3.70
2018-11-03T22:20:23.538Z,3.66
2018-11-03T22:22:53.054Z,3.61
2018-11-03T22:25:22.620Z,3.57
2018-11-03T22:27:53.051Z,3.55
2018-11-03T22:30:22.404Z,3.52
2018-11-03T22:32:51.911Z,3.49
2018-11-03T22:35:21.328Z,3.47
2018-11-03T22:37:51.743Z,3.41
2018-11-03T22:40:21.102Z,3.36
2018-11-03T22:42:51.046Z,3.29
2018-11-03T22:45:20.447Z,3.27
2018-11-03T22:47:49.944Z,3.26
2018-11-03T22:50:19.372Z,3.24
2018-11-03T22:52:48.791Z,3.25
2018-11-03T22:55:22.055Z,3.26
2018-11-03T22:57:51.446Z,3.26
2018-11-03T23:00:20.926Z,3.23
2018-11-03T23:02:50.451Z,3.23
2018-11-03T23:05:19.825Z,3.18
2018-11-03T23:07:49.296Z,3.16
2018-11-03T23:10:18.654Z,3.12
2018-11-03T23:12:48.158Z,3.10
2018-11-03T23:15:17.553Z,3.10
2018-11-03T23:17:46.991Z,3.07
2018-11-03T23:20:16.412Z,3.04
2018-11-03T23:22:45.790Z,3.01
2018-11-03T23:25:15.110Z,2.98
2018-11-03T23:27:44.489Z,2.96
2018-11-03T23:30:13.942Z,2.96
2018-11-03T23:32:43.183Z,2.92
2018-11-03T23:35:14.927Z,2.89
2018-11-03T23:37:44.361Z,2.86
2018-11-03T23:40:13.765Z,2.83
2018-11-03T23:42:43.212Z,2.82
2018-11-03T23:45:12.582Z,2.82
2018-11-03T23:47:42.144Z,2.80
2018-11-03T23:50:12.963Z,2.78
2018-11-03T23:52:46.359Z,2.76
2018-11-03T23:55:15.739Z,2.73
2018-11-03T23:57:45.186Z,2.71
